createdAt,value
2019-02-16T00:01:55.699Z,7.50
2019-02-16T00:04:09.347Z,7.50
2019-02-16T00:06:25.605Z,8.37
2019-02-16T00:08:39.170Z,7.80
2019-02-16T00:11:00.401Z,7.20
2019-02-16T00:13:11.788Z,7.63
2019-02-16T00:15:22.187Z,8.53
2019-02-16T00:17:26.470Z,8.07
2019-02-16T00:19:45.895Z,8.70
2019-02-16T00:22:01.139Z,6.00
2019-02-16T00:24:16.983Z,9.00
2019-02-16T00:26:34.385Z,7.43
2019-02-16T00:28:49.307Z,6.70
2019-02-16T00:30:55.182Z,6.57
2019-02-16T00:33:08.803Z,6.27
2019-02-16T00:35:21.073Z,6.47
2019-02-16T00:37:24.982Z,6.50
2019-02-16T00:39:36.789Z,5.67
2019-02-16T00:41:48.223Z,7.50
2019-02-16T00:43:55.987Z,6.70
2019-02-16T00:46:06.093Z,5.40
2019-02-16T00:48:25.485Z,7.50
2019-02-16T00:50:36.189Z,7.30
2019-02-16T00:52:47.988Z,9.33
2019-02-16T00:55:09.465Z,8.53
2019-02-16T00:57:27.974Z,8.17
2019-02-16T00:59:42.044Z,8.00
2019-02-16T01:02:02.069Z,7.50
2019-02-16T01:04:16.711Z,5.97
2019-02-16T01:06:28.311Z,7.73
2019-02-16T01:08:43.244Z,7.10
2019-02-16T01:11:01.786Z,7.37
2019-02-16T01:13:11.866Z,6.83
2019-02-16T01:15:22.654Z,6.60
2019-02-16T01:17:35.993Z,6.13
2019-02-16T01:19:51.959Z,6.30
2019-02-16T01:21:58.760Z,6.70
2019-02-16T01:24:07.634Z,6.73
2019-02-16T01:26:16.593Z,5.90
2019-02-16T01:28:31.961Z,6.40
2019-02-16T01:30:39.120Z,7.07
2019-02-16T01:32:51.188Z,6.20
2019-02-16T01:35:00.523Z,6.10
2019-02-16T01:37:14.060Z,8.03
2019-02-16T01:39:31.812Z,6.93
2019-02-16T01:41:41.938Z,6.60
2019-02-16T01:43:52.289Z,6.60
2019-02-16T01:46:00.047Z,5.93
2019-02-16T01:48:04.246Z,7.30
2019-02-16T01:50:09.418Z,8.10
2019-02-16T01:52:14.965Z,6.60
2019-02-16T01:54:18.899Z,7.50
2019-02-16T01:56:32.564Z,7.00
2019-02-16T01:58:36.409Z,6.97
2019-02-16T02:00:40.276Z,6.00
2019-02-16T02:02:44.144Z,6.67
2019-02-16T02:04:49.163Z,7.53
2019-02-16T02:06:52.994Z,7.03
2019-02-16T02:08:56.810Z,6.70
2019-02-16T02:11:00.875Z,7.77
2019-02-16T02:13:04.953Z,7.23
2019-02-16T02:15:09.595Z,7.87
2019-02-16T02:17:13.391Z,6.83
2019-02-16T02:19:17.207Z,7.40
2019-02-16T02:21:21.015Z,8.17
2019-02-16T02:23:24.823Z,8.20
2019-02-16T02:25:28.659Z,8.20
2019-02-16T02:27:32.465Z,7.80
2019-02-16T02:29:36.351Z,8.00
2019-02-16T02:31:40.166Z,7.40
2019-02-16T02:33:44.147Z,8.93
2019-02-16T02:35:48.068Z,8.07
2019-02-16T02:37:52.012Z,8.53
2019-02-16T02:39:55.878Z,8.70
2019-02-16T02:41:59.746Z,8.77
2019-02-16T02:44:03.638Z,7.63
2019-02-16T02:46:07.447Z,7.60
2019-02-16T02:48:11.231Z,8.03
2019-02-16T02:50:16.148Z,7.30
2019-02-16T02:52:20.002Z,8.77
2019-02-16T02:54:23.895Z,8.57
2019-02-16T02:56:27.835Z,8.67
2019-02-16T02:58:32.064Z,7.77
2019-02-16T03:00:40.703Z,7.67
2019-02-16T03:02:51.520Z,8.13
2019-02-16T03:05:00.665Z,8.83
2019-02-16T03:07:04.672Z,7.07
2019-02-16T03:09:12.750Z,8.27
2019-02-16T03:11:19.265Z,8.17
2019-02-16T03:13:59.065Z,7.57
2019-02-16T03:19:50.148Z,7.97
2019-02-16T03:23:05.322Z,8.67
2019-02-16T03:25:45.985Z,7.40
2019-02-16T03:29:26.168Z,8.70
2019-02-16T03:32:24.521Z,8.10
2019-02-16T03:38:48.038Z,8.23
2019-02-16T03:45:20.962Z,8.60
2019-02-16T03:48:11.017Z,9.17
2019-02-16T03:54:31.465Z,8.47
2019-02-16T03:57:44.058Z,8.80
2019-02-16T04:04:18.436Z,8.90
2019-02-16T04:08:42.193Z,10.30
2019-02-16T04:10:54.282Z,9.10
2019-02-16T04:17:36.982Z,8.40
2019-02-16T04:21:09.887Z,9.47
2019-02-16T04:24:09.334Z,8.30
2019-02-16T04:30:50.321Z,9.57
2019-02-16T04:33:56.562Z,8.50
2019-02-16T04:43:12.584Z,9.03
2019-02-16T04:49:39.129Z,9.50
2019-02-16T04:59:14.981Z,9.53
2019-02-16T05:02:32.575Z,9.13
2019-02-16T05:06:14.696Z,9.10
2019-02-16T05:08:51.741Z,8.97
2019-02-16T05:13:34.647Z,10.37
2019-02-16T05:14:38.190Z,11.73
2019-02-16T05:17:52.490Z,10.63
2019-02-16T05:21:23.949Z,10.50
2019-02-16T05:28:25.525Z,10.63
2019-02-16T05:34:30.118Z,10.67
2019-02-16T05:36:49.284Z,10.27
2019-02-16T05:39:16.220Z,10.97
2019-02-16T05:41:25.049Z,10.57
2019-02-16T05:43:36.513Z,11.47
2019-02-16T05:45:48.589Z,11.80
2019-02-16T05:48:06.558Z,12.30
2019-02-16T05:52:00.231Z,12.57
2019-02-16T05:52:43.018Z,13.07
2019-02-16T05:55:18.040Z,12.30
2019-02-16T05:57:48.591Z,12.30
2019-02-16T06:03:21.132Z,12.60
2019-02-16T06:06:18.830Z,11.60
2019-02-16T06:18:00.892Z,14.77
2019-02-16T06:31:15.200Z,14.10
2019-02-16T06:36:56.566Z,15.20
2019-02-16T06:40:01.031Z,15.57
2019-02-16T06:43:19.856Z,14.37
2019-02-16T07:28:42.327Z,9.83
2019-02-16T07:30:57.325Z,10.63
2019-02-16T07:38:51.079Z,9.50
2019-02-16T07:41:25.097Z,10.10
2019-02-16T07:44:23.605Z,10.37
2019-02-16T07:46:57.913Z,10.73
2019-02-16T07:49:17.201Z,9.83
2019-02-16T07:51:49.162Z,10.90
2019-02-16T07:57:26.519Z,9.97
2019-02-16T08:00:20.367Z,9.50
2019-02-16T08:03:08.446Z,10.07
2019-02-16T08:05:37.294Z,9.40
2019-02-16T08:08:13.575Z,10.27
2019-02-16T08:11:39.520Z,10.60
2019-02-16T08:14:02.649Z,10.40
2019-02-16T08:16:33.116Z,9.33
2019-02-16T08:19:30.312Z,10.40
2019-02-16T08:22:31.786Z,9.00
2019-02-16T08:25:13.738Z,9.07
2019-02-16T08:28:24.488Z,9.40
2019-02-16T08:30:50.555Z,9.50
2019-02-16T08:33:21.743Z,11.20
2019-02-16T08:35:56.254Z,13.03
2019-02-16T08:38:42.820Z,10.00
2019-02-16T08:41:27.941Z,10.13
2019-02-16T08:43:57.820Z,11.17
2019-02-16T08:47:25.547Z,11.40
2019-02-16T08:49:52.471Z,23.30
2019-02-16T08:52:56.717Z,14.40
2019-02-16T09:01:32.359Z,13.73
2019-02-16T09:04:34.763Z,20.97
2019-02-16T09:07:31.847Z,8.50
2019-02-16T09:10:29.074Z,9.13
2019-02-16T09:13:22.569Z,7.73
2019-02-16T09:15:53.590Z,8.70
2019-02-16T09:18:40.441Z,8.80
2019-02-16T09:21:42.893Z,7.77
2019-02-16T09:24:23.196Z,7.07
2019-02-16T09:27:18.796Z,8.20
2019-02-16T09:30:31.034Z,7.30
2019-02-16T09:35:44.059Z,7.77
2019-02-16T09:38:37.633Z,7.87
2019-02-16T09:41:48.532Z,7.17
2019-02-16T09:47:40.780Z,7.47
2019-02-16T09:47:52.956Z,8.37
2019-02-16T09:50:54.320Z,6.93
2019-02-16T09:53:55.646Z,7.30
2019-02-16T09:57:00.620Z,7.80
2019-02-16T10:09:24.369Z,8.00
2019-02-16T10:16:14.956Z,8.70
2019-02-16T11:58:04.782Z,15.03
2019-02-16T12:01:08.188Z,14.47
2019-02-16T12:03:23.662Z,14.37
2019-02-16T12:10:19.376Z,15.17
2019-02-16T12:16:52.471Z,14.03
2019-02-16T12:23:10.994Z,13.90
2019-02-16T12:26:10.545Z,15.23
2019-02-16T12:29:22.942Z,15.13
2019-02-16T12:32:27.494Z,15.80
2019-02-16T12:35:41.851Z,16.73
2019-02-16T12:38:52.903Z,14.53
2019-02-16T12:41:53.746Z,16.77
2019-02-16T12:47:58.195Z,17.70
2019-02-16T12:51:59.086Z,17.90
2019-02-16T12:53:42.567Z,18.53
2019-02-16T12:59:17.465Z,18.27
2019-02-16T13:05:48.763Z,17.23
2019-02-16T13:10:57.511Z,18.90
2019-02-16T13:17:53.891Z,17.10
2019-02-16T13:30:14.058Z,17.37
2019-02-16T13:37:09.880Z,16.23
2019-02-16T13:40:17.408Z,15.17
2019-02-16T13:46:19.161Z,14.23
2019-02-16T13:49:00.611Z,16.30
2019-02-16T14:08:40.722Z,14.80
2019-02-16T14:18:24.743Z,14.40
2019-02-16T14:46:21.684Z,12.60
2019-02-16T16:13:18.655Z,14.07
2019-02-16T16:35:30.797Z,14.10
2019-02-16T16:48:07.224Z,14.87
2019-02-16T17:11:37.246Z,15.93
2019-02-16T17:39:18.535Z,17.87
2019-02-16T17:45:50.934Z,15.40
2019-02-16T18:12:23.234Z,16.83
2019-02-16T18:58:25.635Z,18.10
2019-02-16T19:08:59.904Z,20.07
2019-02-16T19:12:44.995Z,19.80
2019-02-16T19:15:18.629Z,20.23
2019-02-16T19:19:17.625Z,19.07
2019-02-16T19:21:31.432Z,21.20
2019-02-16T19:28:09.067Z,21.63
2019-02-16T19:34:30.092Z,18.77
2019-02-16T19:40:36.116Z,47.70
2019-02-16T19:50:26.999Z,23.53
2019-02-16T19:56:24.315Z,29.50
2019-02-16T19:59:47.911Z,26.17
2019-02-16T20:02:39.559Z,24.90
2019-02-16T20:10:05.967Z,27.20
2019-02-16T20:12:05.932Z,24.03
2019-02-16T20:15:04.131Z,24.20
2019-02-16T20:35:43.998Z,27.93
2019-02-16T20:41:20.604Z,28.50
2019-02-16T20:44:41.537Z,29.47
2019-02-16T20:59:47.237Z,26.97
2019-02-16T21:02:09.136Z,27.50
2019-02-16T21:04:44.533Z,25.77
2019-02-16T21:07:26.479Z,26.87
2019-02-16T21:10:03.780Z,22.90
2019-02-16T21:12:24.098Z,26.10
2019-02-16T21:14:47.396Z,27.90
2019-02-16T21:17:40.000Z,29.17
2019-02-16T21:20:06.867Z,29.13
2019-02-16T21:22:44.585Z,32.33
2019-02-16T21:25:22.181Z,30.90
2019-02-16T21:27:57.821Z,30.07
2019-02-16T21:30:25.196Z,31.50
2019-02-16T21:33:18.442Z,31.10
2019-02-16T21:36:10.400Z,29.10
2019-02-16T21:38:41.674Z,28.17
2019-02-16T21:41:29.189Z,30.60
2019-02-16T21:47:06.537Z,29.93
2019-02-16T21:49:53.897Z,30.77
2019-02-16T21:52:29.765Z,28.60
2019-02-16T21:54:59.201Z,30.27
2019-02-16T21:57:35.282Z,28.77
2019-02-16T22:00:06.315Z,31.60
2019-02-16T22:02:36.010Z,30.90
2019-02-16T22:04:58.143Z,31.80
2019-02-16T22:07:40.302Z,29.83
2019-02-16T22:10:00.592Z,30.27
2019-02-16T22:12:23.688Z,32.27
2019-02-16T22:14:31.252Z,30.50
2019-02-16T22:16:40.092Z,28.27
2019-02-16T22:18:54.990Z,30.23
2019-02-16T22:21:03.373Z,30.63
2019-02-16T22:23:14.912Z,31.07
2019-02-16T22:25:30.630Z,34.73
2019-02-16T22:27:37.937Z,35.20
2019-02-16T22:29:42.238Z,34.73
2019-02-16T22:32:03.628Z,34.93
2019-02-16T22:34:11.910Z,34.60
2019-02-16T22:36:21.726Z,35.00
2019-02-16T22:38:44.032Z,33.83
2019-02-16T22:41:00.568Z,34.97
2019-02-16T22:43:14.094Z,37.77
2019-02-16T22:45:33.280Z,37.30
2019-02-16T22:47:52.752Z,36.60
2019-02-16T22:50:10.971Z,39.90
2019-02-16T22:52:21.682Z,36.30
2019-02-16T22:54:39.573Z,38.43
2019-02-16T22:57:10.601Z,37.90
2019-02-16T22:59:28.209Z,38.17
2019-02-16T23:01:39.395Z,36.43
2019-02-16T23:03:59.777Z,38.07
2019-02-16T23:06:08.964Z,37.10
2019-02-16T23:08:26.423Z,37.80
2019-02-16T23:10:36.428Z,37.40
2019-02-16T23:12:52.837Z,37.77
2019-02-16T23:15:08.238Z,34.80
2019-02-16T23:17:39.274Z,35.40
2019-02-16T23:19:56.718Z,36.83
2019-02-16T23:22:10.047Z,37.13
2019-02-16T23:24:32.509Z,38.97
2019-02-16T23:26:48.168Z,37.93
2019-02-16T23:28:56.533Z,37.80
2019-02-16T23:31:11.058Z,35.73
2019-02-16T23:33:47.257Z,39.57
2019-02-16T23:35:56.051Z,39.60
2019-02-16T23:38:06.948Z,38.10
2019-02-16T23:40:17.500Z,36.00
2019-02-16T23:42:38.365Z,35.33
2019-02-16T23:44:56.879Z,37.03
2019-02-16T23:47:12.166Z,37.07
2019-02-16T23:49:27.840Z,38.40
2019-02-16T23:51:40.274Z,39.27
2019-02-16T23:53:54.920Z,39.30
2019-02-16T23:56:05.252Z,37.63
2019-02-16T23:58:35.684Z,37.23
